sensor_id;sensor_type;location;lat;lon;timestamp;temperature;humidity
41838;DHT22;27511;52.042;5.178;2023-11-19T00:02:10;15.90;99.90
41838;DHT22;27511;52.042;5.178;2023-11-19T00:04:39;15.80;99.90
41838;DHT22;27511;52.042;5.178;2023-11-19T00:07:05;15.70;99.90
41838;DHT22;27511;52.042;5.178;2023-11-19T00:09:33;15.90;99.90
41838;DHT22;27511;52.042;5.178;2023-11-19T00:11:59;15.90;99.90
41838;DHT22;27511;52.042;5.178;2023-11-19T00:14:26;16.00;99.90
41838;DHT22;27511;52.042;5.178;2023-11-19T00:16:51;15.90;99.90
41838;DHT22;27511;52.042;5.178;2023-11-19T00:19:17;15.90;99.90
41838;DHT22;27511;52.042;5.178;2023-11-19T00:21:42;15.90;99.90
41838;DHT22;27511;52.042;5.178;2023-11-19T00:24:09;15.90;99.90
41838;DHT22;27511;52.042;5.178;2023-11-19T00:26:34;16.00;99.90
41838;DHT22;27511;52.042;5.178;2023-11-19T00:29:00;16.10;99.90
41838;DHT22;27511;52.042;5.178;2023-11-19T00:31:26;16.00;99.90
41838;DHT22;27511;52.042;5.178;2023-11-19T00:33:53;16.10;99.90
41838;DHT22;27511;52.042;5.178;2023-11-19T00:36:19;16.20;99.90
41838;DHT22;27511;52.042;5.178;2023-11-19T00:38:44;16.10;99.90
41838;DHT22;27511;52.042;5.178;2023-11-19T00:41:10;16.30;99.90
41838;DHT22;27511;52.042;5.178;2023-11-19T00:43:36;16.30;99.90
41838;DHT22;27511;52.042;5.178;2023-11-19T00:46:02;16.20;99.90
41838;DHT22;27511;52.042;5.178;2023-11-19T00:48:30;16.20;99.90
41838;DHT22;27511;52.042;5.178;2023-11-19T00:50:57;16.20;99.90
41838;DHT22;27511;52.042;5.178;2023-11-19T00:53:22;16.20;99.90
41838;DHT22;27511;52.042;5.178;2023-11-19T00:55:48;16.10;99.90
41838;DHT22;27511;52.042;5.178;2023-11-19T00:58:13;16.00;99.90
41838;DHT22;27511;52.042;5.178;2023-11-19T01:00:39;16.10;99.90
41838;DHT22;27511;52.042;5.178;2023-11-19T01:03:05;16.10;99.90
41838;DHT22;27511;52.042;5.178;2023-11-19T01:05:32;15.90;99.90
41838;DHT22;27511;52.042;5.178;2023-11-19T01:07:58;15.70;99.90
41838;DHT22;27511;52.042;5.178;2023-11-19T01:10:24;15.80;99.90
41838;DHT22;27511;52.042;5.178;2023-11-19T01:12:49;15.80;99.90
41838;DHT22;27511;52.042;5.178;2023-11-19T01:15:15;15.90;99.90
41838;DHT22;27511;52.042;5.178;2023-11-19T01:17:43;15.90;99.90
41838;DHT22;27511;52.042;5.178;2023-11-19T01:20:09;15.80;99.90
41838;DHT22;27511;52.042;5.178;2023-11-19T01:22:37;15.90;99.90
41838;DHT22;27511;52.042;5.178;2023-11-19T01:25:03;16.00;99.90
41838;DHT22;27511;52.042;5.178;2023-11-19T01:27:30;15.90;99.90
41838;DHT22;27511;52.042;5.178;2023-11-19T01:29:56;16.00;99.90
41838;DHT22;27511;52.042;5.178;2023-11-19T01:32:22;16.10;99.90
41838;DHT22;27511;52.042;5.178;2023-11-19T01:34:49;16.10;99.90
41838;DHT22;27511;52.042;5.178;2023-11-19T01:37:15;16.10;99.90
41838;DHT22;27511;52.042;5.178;2023-11-19T01:39:43;16.10;99.90
41838;DHT22;27511;52.042;5.178;2023-11-19T01:42:09;16.20;99.90
41838;DHT22;27511;52.042;5.178;2023-11-19T01:44:34;16.00;99.90
41838;DHT22;27511;52.042;5.178;2023-11-19T01:47:01;15.90;99.90
41838;DHT22;27511;52.042;5.178;2023-11-19T01:49:26;15.80;99.90
41838;DHT22;27511;52.042;5.178;2023-11-19T01:51:52;15.80;99.90
41838;DHT22;27511;52.042;5.178;2023-11-19T01:54:18;15.80;99.90
41838;DHT22;27511;52.042;5.178;2023-11-19T01:56:44;15.70;99.90
41838;DHT22;27511;52.042;5.178;2023-11-19T01:59:10;15.70;99.90
41838;DHT22;27511;52.042;5.178;2023-11-19T02:01:37;15.70;99.90
41838;DHT22;27511;52.042;5.178;2023-11-19T02:04:06;15.70;99.90
41838;DHT22;27511;52.042;5.178;2023-11-19T02:06:33;15.60;99.90
41838;DHT22;27511;52.042;5.178;2023-11-19T02:09:00;15.70;99.90
41838;DHT22;27511;52.042;5.178;2023-11-19T02:11:26;15.60;99.90
41838;DHT22;27511;52.042;5.178;2023-11-19T02:13:55;15.60;99.90
41838;DHT22;27511;52.042;5.178;2023-11-19T02:16:21;15.50;99.90
41838;DHT22;27511;52.042;5.178;2023-11-19T02:18:47;15.50;99.90
41838;DHT22;27511;52.042;5.178;2023-11-19T02:21:13;15.40;99.90
41838;DHT22;27511;52.042;5.178;2023-11-19T02:23:40;15.40;99.90
41838;DHT22;27511;52.042;5.178;2023-11-19T02:26:31;15.40;99.90
41838;DHT22;27511;52.042;5.178;2023-11-19T02:28:58;15.40;99.90
41838;DHT22;27511;52.042;5.178;2023-11-19T02:31:24;15.40;99.90
41838;DHT22;27511;52.042;5.178;2023-11-19T02:33:49;15.30;99.90
41838;DHT22;27511;52.042;5.178;2023-11-19T02:36:15;15.30;99.90
41838;DHT22;27511;52.042;5.178;2023-11-19T02:38:42;15.20;99.90
41838;DHT22;27511;52.042;5.178;2023-11-19T02:41:08;15.00;99.90
41838;DHT22;27511;52.042;5.178;2023-11-19T02:43:36;15.00;99.90
41838;DHT22;27511;52.042;5.178;2023-11-19T02:46:03;15.00;99.90
41838;DHT22;27511;52.042;5.178;2023-11-19T02:48:33;14.90;99.90
41838;DHT22;27511;52.042;5.178;2023-11-19T02:51:01;14.90;99.90
41838;DHT22;27511;52.042;5.178;2023-11-19T02:53:26;14.90;99.90
41838;DHT22;27511;52.042;5.178;2023-11-19T02:55:54;14.90;99.90
41838;DHT22;27511;52.042;5.178;2023-11-19T02:58:29;14.90;99.90
41838;DHT22;27511;52.042;5.178;2023-11-19T03:00:55;15.00;99.90
41838;DHT22;27511;52.042;5.178;2023-11-19T03:03:25;15.00;99.90
41838;DHT22;27511;52.042;5.178;2023-11-19T03:05:56;15.00;99.90
41838;DHT22;27511;52.042;5.178;2023-11-19T03:08:22;14.80;99.90
41838;DHT22;27511;52.042;5.178;2023-11-19T03:10:48;14.80;99.90
41838;DHT22;27511;52.042;5.178;2023-11-19T03:13:14;14.80;99.90
41838;DHT22;27511;52.042;5.178;2023-11-19T03:15:41;14.80;99.90
41838;DHT22;27511;52.042;5.178;2023-11-19T03:18:07;14.70;99.90
41838;DHT22;27511;52.042;5.178;2023-11-19T03:20:33;14.80;99.90
41838;DHT22;27511;52.042;5.178;2023-11-19T03:22:59;14.60;99.90
41838;DHT22;27511;52.042;5.178;2023-11-19T03:25:25;14.60;99.90
41838;DHT22;27511;52.042;5.178;2023-11-19T03:28:09;14.50;99.90
41838;DHT22;27511;52.042;5.178;2023-11-19T03:30:36;14.50;99.90
41838;DHT22;27511;52.042;5.178;2023-11-19T03:33:01;14.60;99.90
41838;DHT22;27511;52.042;5.178;2023-11-19T03:35:28;14.60;99.90
41838;DHT22;27511;52.042;5.178;2023-11-19T03:37:53;14.60;99.90
41838;DHT22;27511;52.042;5.178;2023-11-19T03:40:19;14.60;99.90
41838;DHT22;27511;52.042;5.178;2023-11-19T03:42:45;14.50;99.90
41838;DHT22;27511;52.042;5.178;2023-11-19T03:45:11;14.60;99.90
41838;DHT22;27511;52.042;5.178;2023-11-19T03:47:37;14.60;99.90
41838;DHT22;27511;52.042;5.178;2023-11-19T03:50:04;14.50;99.90
41838;DHT22;27511;52.042;5.178;2023-11-19T03:52:30;14.60;99.90
41838;DHT22;27511;52.042;5.178;2023-11-19T03:54:55;14.60;99.90
41838;DHT22;27511;52.042;5.178;2023-11-19T03:57:22;14.50;99.90
41838;DHT22;27511;52.042;5.178;2023-11-19T03:59:48;14.60;99.90
41838;DHT22;27511;52.042;5.178;2023-11-19T04:02:14;14.60;99.90
41838;DHT22;27511;52.042;5.178;2023-11-19T04:04:40;14.50;99.90
41838;DHT22;27511;52.042;5.178;2023-11-19T04:07:06;14.50;99.90
41838;DHT22;27511;52.042;5.178;2023-11-19T04:09:32;14.60;99.90
41838;DHT22;27511;52.042;5.178;2023-11-19T04:12:03;14.50;99.90
41838;DHT22;27511;52.042;5.178;2023-11-19T04:14:29;14.50;99.90
41838;DHT22;27511;52.042;5.178;2023-11-19T04:16:55;14.50;99.90
41838;DHT22;27511;52.042;5.178;2023-11-19T04:19:20;14.40;99.90
41838;DHT22;27511;52.042;5.178;2023-11-19T04:21:46;14.40;99.90
41838;DHT22;27511;52.042;5.178;2023-11-19T04:24:12;14.30;99.90
41838;DHT22;27511;52.042;5.178;2023-11-19T04:26:41;14.40;99.90
41838;DHT22;27511;52.042;5.178;2023-11-19T04:29:09;14.20;99.90
41838;DHT22;27511;52.042;5.178;2023-11-19T04:31:35;14.10;99.90
41838;DHT22;27511;52.042;5.178;2023-11-19T04:34:00;14.20;99.90
41838;DHT22;27511;52.042;5.178;2023-11-19T04:36:26;14.20;99.90
41838;DHT22;27511;52.042;5.178;2023-11-19T04:38:52;14.30;99.90
41838;DHT22;27511;52.042;5.178;2023-11-19T04:41:18;14.20;99.90
41838;DHT22;27511;52.042;5.178;2023-11-19T04:43:43;14.20;99.90
41838;DHT22;27511;52.042;5.178;2023-11-19T04:46:12;14.10;99.90
41838;DHT22;27511;52.042;5.178;2023-11-19T04:48:37;14.10;99.90
41838;DHT22;27511;52.042;5.178;2023-11-19T04:51:06;14.20;99.90
41838;DHT22;27511;52.042;5.178;2023-11-19T04:53:32;14.30;99.90
41838;DHT22;27511;52.042;5.178;2023-11-19T04:55:57;14.30;99.90
41838;DHT22;27511;52.042;5.178;2023-11-19T04:58:23;14.10;99.90
41838;DHT22;27511;52.042;5.178;2023-11-19T05:00:48;14.20;99.90
41838;DHT22;27511;52.042;5.178;2023-11-19T05:03:14;14.20;99.90
41838;DHT22;27511;52.042;5.178;2023-11-19T05:05:39;14.20;99.90
41838;DHT22;27511;52.042;5.178;2023-11-19T05:08:05;14.20;99.90
41838;DHT22;27511;52.042;5.178;2023-11-19T05:10:30;14.20;99.90
41838;DHT22;27511;52.042;5.178;2023-11-19T05:12:56;14.10;99.90
41838;DHT22;27511;52.042;5.178;2023-11-19T05:15:22;14.10;99.90
41838;DHT22;27511;52.042;5.178;2023-11-19T05:17:47;14.20;99.90
41838;DHT22;27511;52.042;5.178;2023-11-19T05:20:13;14.10;99.90
41838;DHT22;27511;52.042;5.178;2023-11-19T05:22:40;14.10;99.90
41838;DHT22;27511;52.042;5.178;2023-11-19T05:25:06;14.10;99.90
41838;DHT22;27511;52.042;5.178;2023-11-19T05:27:32;14.20;99.90
41838;DHT22;27511;52.042;5.178;2023-11-19T05:29:58;14.30;99.90
41838;DHT22;27511;52.042;5.178;2023-11-19T05:32:23;14.20;99.90
41838;DHT22;27511;52.042;5.178;2023-11-19T05:34:49;14.10;99.90
41838;DHT22;27511;52.042;5.178;2023-11-19T05:37:14;14.20;99.90
41838;DHT22;27511;52.042;5.178;2023-11-19T05:39:40;14.20;99.90
41838;DHT22;27511;52.042;5.178;2023-11-19T05:42:05;14.10;99.90
41838;DHT22;27511;52.042;5.178;2023-11-19T05:44:31;14.20;99.90
41838;DHT22;27511;52.042;5.178;2023-11-19T05:46:56;14.20;99.90
41838;DHT22;27511;52.042;5.178;2023-11-19T05:49:22;14.20;99.90
41838;DHT22;27511;52.042;5.178;2023-11-19T05:51:47;14.20;99.90
41838;DHT22;27511;52.042;5.178;2023-11-19T05:54:14;14.10;99.90
41838;DHT22;27511;52.042;5.178;2023-11-19T05:56:40;14.00;99.90
41838;DHT22;27511;52.042;5.178;2023-11-19T05:59:06;14.00;99.90
41838;DHT22;27511;52.042;5.178;2023-11-19T06:01:40;14.00;99.90
41838;DHT22;27511;52.042;5.178;2023-11-19T06:04:07;14.00;99.90
41838;DHT22;27511;52.042;5.178;2023-11-19T06:06:32;14.10;99.90
41838;DHT22;27511;52.042;5.178;2023-11-19T06:08:58;14.10;99.90
41838;DHT22;27511;52.042;5.178;2023-11-19T06:11:23;14.00;99.90
41838;DHT22;27511;52.042;5.178;2023-11-19T06:13:52;14.00;99.90
41838;DHT22;27511;52.042;5.178;2023-11-19T06:16:18;14.00;99.90
41838;DHT22;27511;52.042;5.178;2023-11-19T06:18:43;13.90;99.90
41838;DHT22;27511;52.042;5.178;2023-11-19T06:21:09;13.90;99.90
41838;DHT22;27511;52.042;5.178;2023-11-19T06:23:35;13.90;99.90
41838;DHT22;27511;52.042;5.178;2023-11-19T06:26:01;14.00;99.90
41838;DHT22;27511;52.042;5.178;2023-11-19T06:28:26;13.90;99.90
41838;DHT22;27511;52.042;5.178;2023-11-19T06:30:52;13.80;99.90
41838;DHT22;27511;52.042;5.178;2023-11-19T06:33:18;13.80;99.90
41838;DHT22;27511;52.042;5.178;2023-11-19T06:35:44;13.70;99.90
41838;DHT22;27511;52.042;5.178;2023-11-19T06:38:10;13.90;99.90
41838;DHT22;27511;52.042;5.178;2023-11-19T06:40:35;14.00;99.90
41838;DHT22;27511;52.042;5.178;2023-11-19T06:43:01;14.00;99.90
41838;DHT22;27511;52.042;5.178;2023-11-19T06:45:29;14.00;99.90
41838;DHT22;27511;52.042;5.178;2023-11-19T06:47:54;14.10;99.90
41838;DHT22;27511;52.042;5.178;2023-11-19T06:50:20;14.00;99.90
41838;DHT22;27511;52.042;5.178;2023-11-19T06:52:46;13.90;99.90
41838;DHT22;27511;52.042;5.178;2023-11-19T06:55:11;13.90;99.90
41838;DHT22;27511;52.042;5.178;2023-11-19T06:57:37;13.80;99.90
41838;DHT22;27511;52.042;5.178;2023-11-19T07:00:03;13.80;99.90
41838;DHT22;27511;52.042;5.178;2023-11-19T07:02:31;13.80;99.90
41838;DHT22;27511;52.042;5.178;2023-11-19T07:04:56;13.80;99.90
41838;DHT22;27511;52.042;5.178;2023-11-19T07:07:22;13.80;99.90
41838;DHT22;27511;52.042;5.178;2023-11-19T07:09:48;13.80;99.90
41838;DHT22;27511;52.042;5.178;2023-11-19T07:12:13;13.80;99.90
41838;DHT22;27511;52.042;5.178;2023-11-19T07:14:39;13.90;99.90
41838;DHT22;27511;52.042;5.178;2023-11-19T07:17:05;14.00;99.90
41838;DHT22;27511;52.042;5.178;2023-11-19T07:19:31;14.00;99.90
41838;DHT22;27511;52.042;5.178;2023-11-19T07:21:57;13.80;99.90
41838;DHT22;27511;52.042;5.178;2023-11-19T07:24:22;13.80;99.90
41838;DHT22;27511;52.042;5.178;2023-11-19T07:26:48;13.70;99.90
41838;DHT22;27511;52.042;5.178;2023-11-19T07:29:14;13.80;99.90
41838;DHT22;27511;52.042;5.178;2023-11-19T07:31:43;13.70;99.90
41838;DHT22;27511;52.042;5.178;2023-11-19T07:34:11;13.60;99.90
41838;DHT22;27511;52.042;5.178;2023-11-19T07:36:37;13.80;99.90
41838;DHT22;27511;52.042;5.178;2023-11-19T07:39:04;13.90;99.90
41838;DHT22;27511;52.042;5.178;2023-11-19T07:41:30;14.00;99.90
41838;DHT22;27511;52.042;5.178;2023-11-19T07:43:56;13.90;99.90
41838;DHT22;27511;52.042;5.178;2023-11-19T07:46:22;14.10;99.90
41838;DHT22;27511;52.042;5.178;2023-11-19T07:48:47;14.10;99.90
41838;DHT22;27511;52.042;5.178;2023-11-19T07:51:13;14.00;99.90
41838;DHT22;27511;52.042;5.178;2023-11-19T07:53:42;14.00;99.90
41838;DHT22;27511;52.042;5.178;2023-11-19T07:56:08;14.00;99.90
41838;DHT22;27511;52.042;5.178;2023-11-19T07:58:34;14.00;99.90
41838;DHT22;27511;52.042;5.178;2023-11-19T08:01:00;14.10;99.90
41838;DHT22;27511;52.042;5.178;2023-11-19T08:03:25;14.00;99.90
41838;DHT22;27511;52.042;5.178;2023-11-19T08:05:51;14.00;99.90
41838;DHT22;27511;52.042;5.178;2023-11-19T08:08:17;14.10;99.90
41838;DHT22;27511;52.042;5.178;2023-11-19T08:10:43;14.00;99.90
41838;DHT22;27511;52.042;5.178;2023-11-19T08:13:13;13.90;99.90
41838;DHT22;27511;52.042;5.178;2023-11-19T08:15:38;14.00;99.90
41838;DHT22;27511;52.042;5.178;2023-11-19T08:18:04;14.10;99.90
41838;DHT22;27511;52.042;5.178;2023-11-19T08:20:30;14.10;99.90
41838;DHT22;27511;52.042;5.178;2023-11-19T08:22:56;13.90;99.90
41838;DHT22;27511;52.042;5.178;2023-11-19T08:25:21;14.00;99.90
41838;DHT22;27511;52.042;5.178;2023-11-19T08:27:47;14.10;99.90
41838;DHT22;27511;52.042;5.178;2023-11-19T08:30:13;14.10;99.90
41838;DHT22;27511;52.042;5.178;2023-11-19T08:32:38;14.10;99.90
41838;DHT22;27511;52.042;5.178;2023-11-19T08:35:04;14.10;99.90
41838;DHT22;27511;52.042;5.178;2023-11-19T08:37:30;14.20;99.90
41838;DHT22;27511;52.042;5.178;2023-11-19T08:39:56;14.30;99.90
41838;DHT22;27511;52.042;5.178;2023-11-19T08:42:21;14.30;99.90
41838;DHT22;27511;52.042;5.178;2023-11-19T08:44:50;14.20;99.90
41838;DHT22;27511;52.042;5.178;2023-11-19T08:47:19;14.10;99.90
41838;DHT22;27511;52.042;5.178;2023-11-19T08:49:45;14.20;99.90
41838;DHT22;27511;52.042;5.178;2023-11-19T08:52:11;14.20;99.90
41838;DHT22;27511;52.042;5.178;2023-11-19T08:54:37;14.30;99.90
41838;DHT22;27511;52.042;5.178;2023-11-19T08:57:03;14.20;99.90
41838;DHT22;27511;52.042;5.178;2023-11-19T08:59:32;14.30;99.90
41838;DHT22;27511;52.042;5.178;2023-11-19T09:01:57;14.40;99.90
41838;DHT22;27511;52.042;5.178;2023-11-19T09:04:23;14.50;99.90
41838;DHT22;27511;52.042;5.178;2023-11-19T09:06:49;14.50;99.90
41838;DHT22;27511;52.042;5.178;2023-11-19T09:09:14;14.60;99.90
41838;DHT22;27511;52.042;5.178;2023-11-19T09:11:40;14.60;99.90
41838;DHT22;27511;52.042;5.178;2023-11-19T09:14:06;14.80;99.90
41838;DHT22;27511;52.042;5.178;2023-11-19T09:16:32;14.80;99.90
41838;DHT22;27511;52.042;5.178;2023-11-19T09:18:58;14.80;99.90
41838;DHT22;27511;52.042;5.178;2023-11-19T09:21:27;14.80;99.90
41838;DHT22;27511;52.042;5.178;2023-11-19T09:23:55;14.80;99.90
41838;DHT22;27511;52.042;5.178;2023-11-19T09:26:20;14.60;99.90
41838;DHT22;27511;52.042;5.178;2023-11-19T09:28:46;14.60;99.90
41838;DHT22;27511;52.042;5.178;2023-11-19T09:31:15;14.60;99.90
41838;DHT22;27511;52.042;5.178;2023-11-19T09:33:41;14.60;99.90
41838;DHT22;27511;52.042;5.178;2023-11-19T09:36:08;14.80;99.90
41838;DHT22;27511;52.042;5.178;2023-11-19T09:38:33;14.80;99.90
41838;DHT22;27511;52.042;5.178;2023-11-19T09:40:59;14.90;99.90
41838;DHT22;27511;52.042;5.178;2023-11-19T09:43:27;14.90;99.90
41838;DHT22;27511;52.042;5.178;2023-11-19T09:45:55;14.90;99.90
41838;DHT22;27511;52.042;5.178;2023-11-19T09:48:21;14.90;99.90
41838;DHT22;27511;52.042;5.178;2023-11-19T09:50:50;14.90;99.90
41838;DHT22;27511;52.042;5.178;2023-11-19T09:53:17;15.00;99.90
41838;DHT22;27511;52.042;5.178;2023-11-19T09:55:43;14.80;99.90
41838;DHT22;27511;52.042;5.178;2023-11-19T09:58:09;14.80;99.90
41838;DHT22;27511;52.042;5.178;2023-11-19T10:00:37;14.90;99.90
41838;DHT22;27511;52.042;5.178;2023-11-19T10:03:04;14.90;99.90
41838;DHT22;27511;52.042;5.178;2023-11-19T10:05:31;14.70;99.90
41838;DHT22;27511;52.042;5.178;2023-11-19T10:07:56;14.70;99.90
41838;DHT22;27511;52.042;5.178;2023-11-19T10:10:22;14.80;99.90
41838;DHT22;27511;52.042;5.178;2023-11-19T10:12:51;14.90;99.90
41838;DHT22;27511;52.042;5.178;2023-11-19T10:15:21;15.00;99.90
41838;DHT22;27511;52.042;5.178;2023-11-19T10:17:48;15.10;99.90
41838;DHT22;27511;52.042;5.178;2023-11-19T10:20:13;15.00;99.90
41838;DHT22;27511;52.042;5.178;2023-11-19T10:22:39;14.90;99.90
41838;DHT22;27511;52.042;5.178;2023-11-19T10:25:18;14.90;99.90
41838;DHT22;27511;52.042;5.178;2023-11-19T10:27:47;14.90;99.90
41838;DHT22;27511;52.042;5.178;2023-11-19T10:30:16;15.00;99.90
41838;DHT22;27511;52.042;5.178;2023-11-19T10:32:42;15.00;99.90
41838;DHT22;27511;52.042;5.178;2023-11-19T10:35:08;15.00;99.90
41838;DHT22;27511;52.042;5.178;2023-11-19T10:37:33;15.00;99.90
41838;DHT22;27511;52.042;5.178;2023-11-19T10:40:02;15.10;99.90
41838;DHT22;27511;52.042;5.178;2023-11-19T10:42:30;15.10;99.90
41838;DHT22;27511;52.042;5.178;2023-11-19T10:44:56;15.20;99.90
41838;DHT22;27511;52.042;5.178;2023-11-19T10:47:23;15.30;99.90
41838;DHT22;27511;52.042;5.178;2023-11-19T10:49:49;15.30;99.90
41838;DHT22;27511;52.042;5.178;2023-11-19T10:52:18;15.40;99.90
41838;DHT22;27511;52.042;5.178;2023-11-19T10:54:50;15.40;99.90
41838;DHT22;27511;52.042;5.178;2023-11-19T10:57:27;15.40;99.90
41838;DHT22;27511;52.042;5.178;2023-11-19T11:00:01;15.40;99.90
41838;DHT22;27511;52.042;5.178;2023-11-19T11:02:28;15.40;99.90
41838;DHT22;27511;52.042;5.178;2023-11-19T11:04:56;15.40;99.90
41838;DHT22;27511;52.042;5.178;2023-11-19T11:07:22;15.40;99.90
41838;DHT22;27511;52.042;5.178;2023-11-19T11:09:51;15.50;99.90
41838;DHT22;27511;52.042;5.178;2023-11-19T11:12:21;15.50;99.90
41838;DHT22;27511;52.042;5.178;2023-11-19T11:14:48;15.60;99.90
41838;DHT22;27511;52.042;5.178;2023-11-19T11:17:17;15.60;99.90
41838;DHT22;27511;52.042;5.178;2023-11-19T11:19:44;15.70;99.90
41838;DHT22;27511;52.042;5.178;2023-11-19T11:22:11;15.80;99.90
41838;DHT22;27511;52.042;5.178;2023-11-19T11:27:40;15.60;99.90
41838;DHT22;27511;52.042;5.178;2023-11-19T11:36:00;15.60;99.90
41838;DHT22;27511;52.042;5.178;2023-11-19T11:38:36;15.70;99.90
41838;DHT22;27511;52.042;5.178;2023-11-19T11:41:19;15.70;99.90
41838;DHT22;27511;52.042;5.178;2023-11-19T11:49:00;15.50;99.90
41838;DHT22;27511;52.042;5.178;2023-11-19T11:54:31;15.60;99.90
41838;DHT22;27511;52.042;5.178;2023-11-19T11:57:12;15.80;99.90
41838;DHT22;27511;52.042;5.178;2023-11-19T12:02:11;15.80;99.90
41838;DHT22;27511;52.042;5.178;2023-11-19T12:04:39;15.80;99.90
41838;DHT22;27511;52.042;5.178;2023-11-19T12:07:06;15.60;99.90
41838;DHT22;27511;52.042;5.178;2023-11-19T12:09:32;15.60;99.90
41838;DHT22;27511;52.042;5.178;2023-11-19T12:12:18;15.50;99.90
41838;DHT22;27511;52.042;5.178;2023-11-19T12:15:04;15.60;99.90
41838;DHT22;27511;52.042;5.178;2023-11-19T12:20:00;15.80;99.90
41838;DHT22;27511;52.042;5.178;2023-11-19T12:22:26;15.90;99.90
41838;DHT22;27511;52.042;5.178;2023-11-19T12:24:54;15.80;99.90
41838;DHT22;27511;52.042;5.178;2023-11-19T12:27:20;15.90;99.90
41838;DHT22;27511;52.042;5.178;2023-11-19T12:29:48;15.90;99.90
41838;DHT22;27511;52.042;5.178;2023-11-19T12:32:14;16.00;99.90
41838;DHT22;27511;52.042;5.178;2023-11-19T12:34:39;16.00;99.90
41838;DHT22;27511;52.042;5.178;2023-11-19T12:37:05;16.20;99.90
41838;DHT22;27511;52.042;5.178;2023-11-19T12:39:31;16.30;99.90
41838;DHT22;27511;52.042;5.178;2023-11-19T12:41:57;16.40;99.90
41838;DHT22;27511;52.042;5.178;2023-11-19T12:44:25;16.40;99.90
41838;DHT22;27511;52.042;5.178;2023-11-19T12:47:11;16.40;99.90
41838;DHT22;27511;52.042;5.178;2023-11-19T12:49:37;16.40;99.90
41838;DHT22;27511;52.042;5.178;2023-11-19T12:52:11;16.40;99.90
41838;DHT22;27511;52.042;5.178;2023-11-19T12:54:38;16.30;99.90
41838;DHT22;27511;52.042;5.178;2023-11-19T12:57:04;16.20;99.90
41838;DHT22;27511;52.042;5.178;2023-11-19T12:59:33;16.20;99.90
41838;DHT22;27511;52.042;5.178;2023-11-19T13:01:59;15.90;99.90
41838;DHT22;27511;52.042;5.178;2023-11-19T13:04:29;15.90;99.90
41838;DHT22;27511;52.042;5.178;2023-11-19T13:06:57;15.90;99.90
41838;DHT22;27511;52.042;5.178;2023-11-19T13:09:24;16.00;99.90
41838;DHT22;27511;52.042;5.178;2023-11-19T13:11:50;16.00;99.90
41838;DHT22;27511;52.042;5.178;2023-11-19T13:14:16;15.90;99.90
41838;DHT22;27511;52.042;5.178;2023-11-19T13:16:42;16.00;99.90
41838;DHT22;27511;52.042;5.178;2023-11-19T13:19:08;16.00;99.90
41838;DHT22;27511;52.042;5.178;2023-11-19T13:21:36;16.00;99.90
41838;DHT22;27511;52.042;5.178;2023-11-19T13:24:06;15.80;99.90
41838;DHT22;27511;52.042;5.178;2023-11-19T13:26:32;15.70;99.90
41838;DHT22;27511;52.042;5.178;2023-11-19T13:28:57;15.50;99.90
41838;DHT22;27511;52.042;5.178;2023-11-19T13:31:23;15.40;99.90
41838;DHT22;27511;52.042;5.178;2023-11-19T13:33:48;15.30;99.90
41838;DHT22;27511;52.042;5.178;2023-11-19T13:36:14;15.40;99.90
41838;DHT22;27511;52.042;5.178;2023-11-19T13:38:40;15.40;99.90
41838;DHT22;27511;52.042;5.178;2023-11-19T13:41:07;15.40;99.90
41838;DHT22;27511;52.042;5.178;2023-11-19T13:43:35;15.30;99.90
41838;DHT22;27511;52.042;5.178;2023-11-19T13:46:02;15.20;99.90
41838;DHT22;27511;52.042;5.178;2023-11-19T13:48:28;15.10;99.90
41838;DHT22;27511;52.042;5.178;2023-11-19T13:50:54;15.10;99.90
41838;DHT22;27511;52.042;5.178;2023-11-19T13:53:20;15.20;99.90
41838;DHT22;27511;52.042;5.178;2023-11-19T13:55:46;15.20;99.90
41838;DHT22;27511;52.042;5.178;2023-11-19T13:58:13;15.20;99.90
41838;DHT22;27511;52.042;5.178;2023-11-19T14:00:38;15.20;99.90
41838;DHT22;27511;52.042;5.178;2023-11-19T14:03:04;15.20;99.90
41838;DHT22;27511;52.042;5.178;2023-11-19T14:05:30;15.30;99.90
41838;DHT22;27511;52.042;5.178;2023-11-19T14:07:56;15.50;99.90
41838;DHT22;27511;52.042;5.178;2023-11-19T14:10:23;15.50;99.90
41838;DHT22;27511;52.042;5.178;2023-11-19T14:12:49;15.50;99.90
41838;DHT22;27511;52.042;5.178;2023-11-19T14:15:15;15.50;99.90
41838;DHT22;27511;52.042;5.178;2023-11-19T14:17:42;15.50;99.90
41838;DHT22;27511;52.042;5.178;2023-11-19T14:20:09;15.40;99.90
41838;DHT22;27511;52.042;5.178;2023-11-19T14:22:42;15.40;99.90
41838;DHT22;27511;52.042;5.178;2023-11-19T14:25:09;15.20;99.90
41838;DHT22;27511;52.042;5.178;2023-11-19T14:27:39;15.10;99.90
41838;DHT22;27511;52.042;5.178;2023-11-19T14:30:06;15.30;99.90
41838;DHT22;27511;52.042;5.178;2023-11-19T14:32:32;15.20;99.90
41838;DHT22;27511;52.042;5.178;2023-11-19T14:34:58;15.20;99.90
41838;DHT22;27511;52.042;5.178;2023-11-19T14:37:24;15.10;99.90
41838;DHT22;27511;52.042;5.178;2023-11-19T14:39:49;15.10;99.90
41838;DHT22;27511;52.042;5.178;2023-11-19T14:42:16;15.00;99.90
41838;DHT22;27511;52.042;5.178;2023-11-19T14:44:42;15.00;99.90
41838;DHT22;27511;52.042;5.178;2023-11-19T14:47:08;15.00;99.90
41838;DHT22;27511;52.042;5.178;2023-11-19T14:49:36;15.10;99.90
41838;DHT22;27511;52.042;5.178;2023-11-19T14:52:03;15.00;99.90
41838;DHT22;27511;52.042;5.178;2023-11-19T14:54:29;15.00;99.90
41838;DHT22;27511;52.042;5.178;2023-11-19T14:56:55;15.00;99.90
41838;DHT22;27511;52.042;5.178;2023-11-19T14:59:20;15.00;99.90
41838;DHT22;27511;52.042;5.178;2023-11-19T15:01:46;15.10;99.90
41838;DHT22;27511;52.042;5.178;2023-11-19T15:04:12;15.10;99.90
41838;DHT22;27511;52.042;5.178;2023-11-19T15:06:38;15.30;99.90
41838;DHT22;27511;52.042;5.178;2023-11-19T15:09:04;15.40;99.90
41838;DHT22;27511;52.042;5.178;2023-11-19T15:11:30;15.30;99.90
41838;DHT22;27511;52.042;5.178;2023-11-19T15:13:56;15.40;99.90
41838;DHT22;27511;52.042;5.178;2023-11-19T15:16:21;15.40;99.90
41838;DHT22;27511;52.042;5.178;2023-11-19T15:18:57;15.40;99.90
41838;DHT22;27511;52.042;5.178;2023-11-19T15:21:25;15.20;99.90
41838;DHT22;27511;52.042;5.178;2023-11-19T15:23:51;15.20;99.90
41838;DHT22;27511;52.042;5.178;2023-11-19T15:26:17;15.20;99.90
41838;DHT22;27511;52.042;5.178;2023-11-19T15:28:43;15.30;99.90
41838;DHT22;27511;52.042;5.178;2023-11-19T15:31:08;15.30;99.90
41838;DHT22;27511;52.042;5.178;2023-11-19T15:33:35;15.30;99.90
41838;DHT22;27511;52.042;5.178;2023-11-19T15:36:01;15.30;99.90
41838;DHT22;27511;52.042;5.178;2023-11-19T15:38:28;15.20;99.90
41838;DHT22;27511;52.042;5.178;2023-11-19T15:40:54;15.20;99.90
41838;DHT22;27511;52.042;5.178;2023-11-19T15:43:20;15.10;99.90
41838;DHT22;27511;52.042;5.178;2023-11-19T15:45:46;15.10;99.90
41838;DHT22;27511;52.042;5.178;2023-11-19T15:48:11;15.10;99.90
41838;DHT22;27511;52.042;5.178;2023-11-19T15:50:39;15.10;99.90